sensor_id;sensor_type;location;lat;lon;timestamp;temperature;humidity
2783;DHT22;1399;47.072;15.452;2024-03-08T00:00:09;11.60;50.90
2783;DHT22;1399;47.072;15.452;2024-03-08T00:02:41;11.50;50.90
2783;DHT22;1399;47.072;15.452;2024-03-08T00:05:08;11.60;50.90
2783;DHT22;1399;47.072;15.452;2024-03-08T00:07:38;11.60;50.90
2783;DHT22;1399;47.072;15.452;2024-03-08T00:10:09;11.50;50.80
2783;DHT22;1399;47.072;15.452;2024-03-08T00:12:42;11.50;50.80
2783;DHT22;1399;47.072;15.452;2024-03-08T00:15:12;11.50;50.80
2783;DHT22;1399;47.072;15.452;2024-03-08T00:17:42;11.50;50.80
2783;DHT22;1399;47.072;15.452;2024-03-08T00:20:08;11.50;50.80
2783;DHT22;1399;47.072;15.452;2024-03-08T00:22:35;11.50;50.90
2783;DHT22;1399;47.072;15.452;2024-03-08T00:25:02;11.50;51.00
2783;DHT22;1399;47.072;15.452;2024-03-08T00:27:29;11.50;51.00
2783;DHT22;1399;47.072;15.452;2024-03-08T00:29:59;11.50;51.00
2783;DHT22;1399;47.072;15.452;2024-03-08T00:32:26;11.50;51.00
2783;DHT22;1399;47.072;15.452;2024-03-08T00:34:53;11.50;51.00
2783;DHT22;1399;47.072;15.452;2024-03-08T00:37:23;11.40;50.90
2783;DHT22;1399;47.072;15.452;2024-03-08T00:39:50;11.40;50.80
2783;DHT22;1399;47.072;15.452;2024-03-08T00:42:16;11.40;50.80
2783;DHT22;1399;47.072;15.452;2024-03-08T00:44:42;11.40;50.80
2783;DHT22;1399;47.072;15.452;2024-03-08T00:47:08;11.40;50.80
2783;DHT22;1399;47.072;15.452;2024-03-08T00:49:34;11.40;50.80
2783;DHT22;1399;47.072;15.452;2024-03-08T00:52:00;11.40;50.70
2783;DHT22;1399;47.072;15.452;2024-03-08T00:54:27;11.40;50.70
2783;DHT22;1399;47.072;15.452;2024-03-08T00:56:52;11.40;50.60
2783;DHT22;1399;47.072;15.452;2024-03-08T00:59:18;11.40;50.60
2783;DHT22;1399;47.072;15.452;2024-03-08T01:01:44;11.30;50.40
2783;DHT22;1399;47.072;15.452;2024-03-08T01:04:10;11.30;50.40
2783;DHT22;1399;47.072;15.452;2024-03-08T01:06:37;11.30;50.30
2783;DHT22;1399;47.072;15.452;2024-03-08T01:09:03;11.30;50.40
2783;DHT22;1399;47.072;15.452;2024-03-08T01:11:28;11.30;50.30
2783;DHT22;1399;47.072;15.452;2024-03-08T01:13:54;11.20;50.30
2783;DHT22;1399;47.072;15.452;2024-03-08T01:16:20;11.20;50.30
2783;DHT22;1399;47.072;15.452;2024-03-08T01:18:47;11.20;50.30
2783;DHT22;1399;47.072;15.452;2024-03-08T01:21:12;11.20;50.30
2783;DHT22;1399;47.072;15.452;2024-03-08T01:23:38;11.20;50.30
2783;DHT22;1399;47.072;15.452;2024-03-08T01:26:04;11.20;50.90
2783;DHT22;1399;47.072;15.452;2024-03-08T01:28:30;11.20;50.20
2783;DHT22;1399;47.072;15.452;2024-03-08T01:30:56;11.10;50.20
2783;DHT22;1399;47.072;15.452;2024-03-08T01:33:26;11.10;50.10
2783;DHT22;1399;47.072;15.452;2024-03-08T01:35:53;11.10;50.10
2783;DHT22;1399;47.072;15.452;2024-03-08T01:38:19;11.10;50.10
2783;DHT22;1399;47.072;15.452;2024-03-08T01:40:49;11.10;50.10
2783;DHT22;1399;47.072;15.452;2024-03-08T01:43:21;11.10;50.10
2783;DHT22;1399;47.072;15.452;2024-03-08T01:45:48;11.10;50.00
2783;DHT22;1399;47.072;15.452;2024-03-08T01:48:15;11.00;49.90
2783;DHT22;1399;47.072;15.452;2024-03-08T01:50:43;11.00;49.90
2783;DHT22;1399;47.072;15.452;2024-03-08T01:53:10;11.00;49.90
2783;DHT22;1399;47.072;15.452;2024-03-08T01:55:38;11.00;49.90
2783;DHT22;1399;47.072;15.452;2024-03-08T01:58:05;11.00;49.90
2783;DHT22;1399;47.072;15.452;2024-03-08T02:00:33;11.00;49.90
2783;DHT22;1399;47.072;15.452;2024-03-08T02:02:59;11.00;49.90
2783;DHT22;1399;47.072;15.452;2024-03-08T02:05:25;11.00;49.90
2783;DHT22;1399;47.072;15.452;2024-03-08T02:07:51;11.00;49.80
2783;DHT22;1399;47.072;15.452;2024-03-08T02:10:17;11.00;49.80
2783;DHT22;1399;47.072;15.452;2024-03-08T02:12:44;10.90;49.70
2783;DHT22;1399;47.072;15.452;2024-03-08T02:15:09;10.90;49.70
2783;DHT22;1399;47.072;15.452;2024-03-08T02:17:36;10.90;49.70
2783;DHT22;1399;47.072;15.452;2024-03-08T02:20:02;10.90;49.70
2783;DHT22;1399;47.072;15.452;2024-03-08T02:22:30;10.90;49.80
2783;DHT22;1399;47.072;15.452;2024-03-08T02:24:58;10.90;49.80
2783;DHT22;1399;47.072;15.452;2024-03-08T02:27:27;10.90;49.80
2783;DHT22;1399;47.072;15.452;2024-03-08T02:29:56;10.90;49.80
2783;DHT22;1399;47.072;15.452;2024-03-08T02:32:25;10.90;49.80
2783;DHT22;1399;47.072;15.452;2024-03-08T02:34:51;10.90;49.80
2783;DHT22;1399;47.072;15.452;2024-03-08T02:37:21;10.90;49.80
2783;DHT22;1399;47.072;15.452;2024-03-08T02:39:47;10.80;49.70
2783;DHT22;1399;47.072;15.452;2024-03-08T02:42:13;10.90;49.80
2783;DHT22;1399;47.072;15.452;2024-03-08T02:44:42;10.90;50.40
2783;DHT22;1399;47.072;15.452;2024-03-08T02:47:09;10.90;49.70
2783;DHT22;1399;47.072;15.452;2024-03-08T02:49:36;10.90;49.80
2783;DHT22;1399;47.072;15.452;2024-03-08T02:52:04;10.90;49.80
2783;DHT22;1399;47.072;15.452;2024-03-08T02:54:30;10.90;49.80
2783;DHT22;1399;47.072;15.452;2024-03-08T02:56:56;10.90;49.80
2783;DHT22;1399;47.072;15.452;2024-03-08T02:59:22;10.90;49.80
2783;DHT22;1399;47.072;15.452;2024-03-08T03:01:49;10.90;49.80
2783;DHT22;1399;47.072;15.452;2024-03-08T03:04:15;10.90;49.90
2783;DHT22;1399;47.072;15.452;2024-03-08T03:06:40;10.90;50.10
2783;DHT22;1399;47.072;15.452;2024-03-08T03:09:07;10.90;50.30
2783;DHT22;1399;47.072;15.452;2024-03-08T03:11:32;10.90;50.30
2783;DHT22;1399;47.072;15.452;2024-03-08T03:13:58;10.90;50.40
2783;DHT22;1399;47.072;15.452;2024-03-08T03:16:24;10.90;50.50
2783;DHT22;1399;47.072;15.452;2024-03-08T03:18:49;10.90;50.50
2783;DHT22;1399;47.072;15.452;2024-03-08T03:21:15;10.90;50.60
2783;DHT22;1399;47.072;15.452;2024-03-08T03:23:42;10.90;50.60
2783;DHT22;1399;47.072;15.452;2024-03-08T03:26:09;10.90;50.60
2783;DHT22;1399;47.072;15.452;2024-03-08T03:28:38;10.90;50.60
2783;DHT22;1399;47.072;15.452;2024-03-08T03:31:07;10.90;50.70
2783;DHT22;1399;47.072;15.452;2024-03-08T03:33:32;10.90;50.80
2783;DHT22;1399;47.072;15.452;2024-03-08T03:36:00;10.90;50.80
2783;DHT22;1399;47.072;15.452;2024-03-08T03:38:27;10.90;50.90
2783;DHT22;1399;47.072;15.452;2024-03-08T03:40:53;10.90;50.90
2783;DHT22;1399;47.072;15.452;2024-03-08T03:43:23;10.90;50.90
2783;DHT22;1399;47.072;15.452;2024-03-08T03:45:49;10.90;50.90
2783;DHT22;1399;47.072;15.452;2024-03-08T03:48:14;10.90;51.00
2783;DHT22;1399;47.072;15.452;2024-03-08T03:50:40;10.90;51.10
2783;DHT22;1399;47.072;15.452;2024-03-08T03:53:06;10.90;51.10
2783;DHT22;1399;47.072;15.452;2024-03-08T03:55:34;10.90;51.00
2783;DHT22;1399;47.072;15.452;2024-03-08T03:58:00;10.90;51.00
2783;DHT22;1399;47.072;15.452;2024-03-08T04:00:27;10.90;51.00
2783;DHT22;1399;47.072;15.452;2024-03-08T04:02:53;10.90;51.00
2783;DHT22;1399;47.072;15.452;2024-03-08T04:05:19;10.90;51.00
2783;DHT22;1399;47.072;15.452;2024-03-08T04:07:45;10.90;51.10
2783;DHT22;1399;47.072;15.452;2024-03-08T04:10:11;10.90;51.00
2783;DHT22;1399;47.072;15.452;2024-03-08T04:12:38;10.90;51.00
2783;DHT22;1399;47.072;15.452;2024-03-08T04:15:04;10.90;51.00
2783;DHT22;1399;47.072;15.452;2024-03-08T04:17:33;10.90;51.00
2783;DHT22;1399;47.072;15.452;2024-03-08T04:20:03;10.90;51.00
2783;DHT22;1399;47.072;15.452;2024-03-08T04:22:36;10.90;51.10
2783;DHT22;1399;47.072;15.452;2024-03-08T04:25:03;10.90;51.10
2783;DHT22;1399;47.072;15.452;2024-03-08T04:27:29;10.90;51.10
2783;DHT22;1399;47.072;15.452;2024-03-08T04:29:54;11.00;51.10
2783;DHT22;1399;47.072;15.452;2024-03-08T04:32:20;11.00;51.00
2783;DHT22;1399;47.072;15.452;2024-03-08T04:34:46;10.90;51.00
2783;DHT22;1399;47.072;15.452;2024-03-08T04:37:11;11.00;51.00
2783;DHT22;1399;47.072;15.452;2024-03-08T04:39:39;11.00;51.00
2783;DHT22;1399;47.072;15.452;2024-03-08T04:42:05;10.90;51.00
2783;DHT22;1399;47.072;15.452;2024-03-08T04:44:37;10.90;51.00
2783;DHT22;1399;47.072;15.452;2024-03-08T04:47:05;10.90;51.00
2783;DHT22;1399;47.072;15.452;2024-03-08T04:49:32;10.90;50.90
2783;DHT22;1399;47.072;15.452;2024-03-08T04:52:03;10.90;51.00
2783;DHT22;1399;47.072;15.452;2024-03-08T04:54:30;10.90;51.00
2783;DHT22;1399;47.072;15.452;2024-03-08T04:56:56;10.90;51.00
2783;DHT22;1399;47.072;15.452;2024-03-08T04:59:23;10.90;50.90
2783;DHT22;1399;47.072;15.452;2024-03-08T05:01:49;10.90;50.90
2783;DHT22;1399;47.072;15.452;2024-03-08T05:04:15;10.90;50.90
2783;DHT22;1399;47.072;15.452;2024-03-08T05:06:41;10.90;50.90
2783;DHT22;1399;47.072;15.452;2024-03-08T05:09:07;10.90;50.80
2783;DHT22;1399;47.072;15.452;2024-03-08T05:11:43;10.90;50.80
2783;DHT22;1399;47.072;15.452;2024-03-08T05:14:13;10.90;50.80
2783;DHT22;1399;47.072;15.452;2024-03-08T05:16:45;10.90;50.80
2783;DHT22;1399;47.072;15.452;2024-03-08T05:19:18;10.90;50.80
2783;DHT22;1399;47.072;15.452;2024-03-08T05:21:48;10.90;50.80
2783;DHT22;1399;47.072;15.452;2024-03-08T05:24:14;10.90;50.80
2783;DHT22;1399;47.072;15.452;2024-03-08T05:26:41;10.90;50.80
2783;DHT22;1399;47.072;15.452;2024-03-08T05:29:08;10.90;50.80
2783;DHT22;1399;47.072;15.452;2024-03-08T05:31:48;10.90;50.90
2783;DHT22;1399;47.072;15.452;2024-03-08T05:34:15;10.90;50.80
2783;DHT22;1399;47.072;15.452;2024-03-08T05:36:42;10.90;50.90
2783;DHT22;1399;47.072;15.452;2024-03-08T05:39:12;10.90;50.90
2783;DHT22;1399;47.072;15.452;2024-03-08T05:41:39;10.90;50.90
2783;DHT22;1399;47.072;15.452;2024-03-08T05:44:06;10.90;50.90
2783;DHT22;1399;47.072;15.452;2024-03-08T05:46:32;10.90;51.00
2783;DHT22;1399;47.072;15.452;2024-03-08T05:48:57;10.90;50.90
2783;DHT22;1399;47.072;15.452;2024-03-08T05:51:33;10.90;51.50
2783;DHT22;1399;47.072;15.452;2024-03-08T05:54:02;11.00;50.90
2783;DHT22;1399;47.072;15.452;2024-03-08T05:56:29;11.00;50.80
2783;DHT22;1399;47.072;15.452;2024-03-08T05:58:55;11.00;50.80
2783;DHT22;1399;47.072;15.452;2024-03-08T06:01:22;11.00;50.80
2783;DHT22;1399;47.072;15.452;2024-03-08T06:03:48;11.00;50.90
2783;DHT22;1399;47.072;15.452;2024-03-08T06:06:14;11.00;50.90
2783;DHT22;1399;47.072;15.452;2024-03-08T06:08:43;11.00;50.90
2783;DHT22;1399;47.072;15.452;2024-03-08T06:11:09;11.00;50.90
2783;DHT22;1399;47.072;15.452;2024-03-08T06:13:35;11.10;50.80
2783;DHT22;1399;47.072;15.452;2024-03-08T06:16:01;11.10;50.70
2783;DHT22;1399;47.072;15.452;2024-03-08T06:18:31;11.10;50.60
2783;DHT22;1399;47.072;15.452;2024-03-08T06:20:57;11.10;50.40
2783;DHT22;1399;47.072;15.452;2024-03-08T06:23:23;11.20;50.30
2783;DHT22;1399;47.072;15.452;2024-03-08T06:25:49;11.20;50.20
2783;DHT22;1399;47.072;15.452;2024-03-08T06:28:14;11.20;50.20
2783;DHT22;1399;47.072;15.452;2024-03-08T06:30:40;11.20;50.10
2783;DHT22;1399;47.072;15.452;2024-03-08T06:33:06;11.20;50.10
2783;DHT22;1399;47.072;15.452;2024-03-08T06:35:36;11.20;50.20
2783;DHT22;1399;47.072;15.452;2024-03-08T06:38:04;11.20;50.20
2783;DHT22;1399;47.072;15.452;2024-03-08T06:40:30;11.20;50.10
2783;DHT22;1399;47.072;15.452;2024-03-08T06:42:56;11.20;50.10
2783;DHT22;1399;47.072;15.452;2024-03-08T06:45:21;11.20;50.10
2783;DHT22;1399;47.072;15.452;2024-03-08T06:47:49;11.20;50.00
2783;DHT22;1399;47.072;15.452;2024-03-08T06:50:15;11.20;49.90
2783;DHT22;1399;47.072;15.452;2024-03-08T06:52:41;11.20;49.90
2783;DHT22;1399;47.072;15.452;2024-03-08T06:55:12;11.30;49.90
2783;DHT22;1399;47.072;15.452;2024-03-08T06:57:40;11.30;49.80
2783;DHT22;1399;47.072;15.452;2024-03-08T07:00:09;11.30;49.80
2783;DHT22;1399;47.072;15.452;2024-03-08T07:02:37;11.30;49.80
2783;DHT22;1399;47.072;15.452;2024-03-08T07:05:05;11.30;49.80
2783;DHT22;1399;47.072;15.452;2024-03-08T07:07:31;11.30;49.70
2783;DHT22;1399;47.072;15.452;2024-03-08T07:09:59;11.40;49.70
2783;DHT22;1399;47.072;15.452;2024-03-08T07:12:25;11.40;49.60
2783;DHT22;1399;47.072;15.452;2024-03-08T07:14:51;11.40;49.60
2783;DHT22;1399;47.072;15.452;2024-03-08T07:17:17;11.40;49.60
2783;DHT22;1399;47.072;15.452;2024-03-08T07:19:43;11.50;49.60
2783;DHT22;1399;47.072;15.452;2024-03-08T07:22:09;11.50;49.50
2783;DHT22;1399;47.072;15.452;2024-03-08T07:24:35;11.50;49.40
2783;DHT22;1399;47.072;15.452;2024-03-08T07:27:19;11.60;49.50
2783;DHT22;1399;47.072;15.452;2024-03-08T07:29:45;11.60;49.40
2783;DHT22;1399;47.072;15.452;2024-03-08T07:32:11;11.70;49.30
2783;DHT22;1399;47.072;15.452;2024-03-08T07:34:51;11.70;49.20
2783;DHT22;1399;47.072;15.452;2024-03-08T07:37:20;11.80;49.20
2783;DHT22;1399;47.072;15.452;2024-03-08T07:39:46;11.80;49.20
2783;DHT22;1399;47.072;15.452;2024-03-08T07:42:12;11.90;49.30
2783;DHT22;1399;47.072;15.452;2024-03-08T07:44:38;11.90;49.40
2783;DHT22;1399;47.072;15.452;2024-03-08T07:47:04;11.90;49.50
2783;DHT22;1399;47.072;15.452;2024-03-08T07:49:30;12.00;49.60
2783;DHT22;1399;47.072;15.452;2024-03-08T07:51:56;12.00;49.70
2783;DHT22;1399;47.072;15.452;2024-03-08T07:54:23;12.00;49.70
2783;DHT22;1399;47.072;15.452;2024-03-08T07:56:49;12.00;49.70
2783;DHT22;1399;47.072;15.452;2024-03-08T07:59:16;12.10;49.90
2783;DHT22;1399;47.072;15.452;2024-03-08T08:01:42;12.10;49.90
2783;DHT22;1399;47.072;15.452;2024-03-08T08:04:09;12.20;49.80
2783;DHT22;1399;47.072;15.452;2024-03-08T08:06:38;12.20;49.80
2783;DHT22;1399;47.072;15.452;2024-03-08T08:09:09;12.20;49.80
2783;DHT22;1399;47.072;15.452;2024-03-08T08:11:47;12.20;49.70
2783;DHT22;1399;47.072;15.452;2024-03-08T08:14:13;12.20;49.70
2783;DHT22;1399;47.072;15.452;2024-03-08T08:16:39;12.20;49.60
2783;DHT22;1399;47.072;15.452;2024-03-08T08:19:08;12.20;49.70
2783;DHT22;1399;47.072;15.452;2024-03-08T08:21:37;12.20;50.30
2783;DHT22;1399;47.072;15.452;2024-03-08T08:24:03;12.20;49.70
2783;DHT22;1399;47.072;15.452;2024-03-08T08:26:29;12.20;49.60
2783;DHT22;1399;47.072;15.452;2024-03-08T08:28:55;12.20;49.60
2783;DHT22;1399;47.072;15.452;2024-03-08T08:31:21;12.30;49.60
2783;DHT22;1399;47.072;15.452;2024-03-08T08:33:47;12.30;49.60
2783;DHT22;1399;47.072;15.452;2024-03-08T08:36:17;12.30;49.50
2783;DHT22;1399;47.072;15.452;2024-03-08T08:38:44;12.30;49.60
2783;DHT22;1399;47.072;15.452;2024-03-08T08:41:10;12.40;49.70
2783;DHT22;1399;47.072;15.452;2024-03-08T08:43:36;12.40;49.80
2783;DHT22;1399;47.072;15.452;2024-03-08T08:46:02;12.40;49.70
2783;DHT22;1399;47.072;15.452;2024-03-08T08:48:28;12.50;49.70
2783;DHT22;1399;47.072;15.452;2024-03-08T08:50:56;12.50;49.50
2783;DHT22;1399;47.072;15.452;2024-03-08T08:53:22;12.60;49.60
2783;DHT22;1399;47.072;15.452;2024-03-08T08:55:48;12.60;49.40
2783;DHT22;1399;47.072;15.452;2024-03-08T08:58:13;12.70;49.30
2783;DHT22;1399;47.072;15.452;2024-03-08T09:00:39;12.70;49.20
2783;DHT22;1399;47.072;15.452;2024-03-08T09:03:05;12.80;49.00
2783;DHT22;1399;47.072;15.452;2024-03-08T09:05:32;12.80;48.90
2783;DHT22;1399;47.072;15.452;2024-03-08T09:07:59;12.90;48.90
2783;DHT22;1399;47.072;15.452;2024-03-08T09:10:26;13.00;48.80
2783;DHT22;1399;47.072;15.452;2024-03-08T09:12:53;13.00;48.70
2783;DHT22;1399;47.072;15.452;2024-03-08T09:15:19;13.10;48.80
2783;DHT22;1399;47.072;15.452;2024-03-08T09:17:46;13.10;48.70
2783;DHT22;1399;47.072;15.452;2024-03-08T09:20:13;13.10;48.50
2783;DHT22;1399;47.072;15.452;2024-03-08T09:22:44;13.20;48.40
2783;DHT22;1399;47.072;15.452;2024-03-08T09:25:10;13.20;48.40
2783;DHT22;1399;47.072;15.452;2024-03-08T09:27:36;13.20;48.10
2783;DHT22;1399;47.072;15.452;2024-03-08T09:30:02;13.30;48.90
2783;DHT22;1399;47.072;15.452;2024-03-08T09:32:28;13.30;48.10
2783;DHT22;1399;47.072;15.452;2024-03-08T09:34:56;13.30;47.90
2783;DHT22;1399;47.072;15.452;2024-03-08T09:37:22;13.20;48.00
2783;DHT22;1399;47.072;15.452;2024-03-08T09:39:48;13.20;48.20
2783;DHT22;1399;47.072;15.452;2024-03-08T09:42:15;13.20;48.30
2783;DHT22;1399;47.072;15.452;2024-03-08T09:44:47;13.20;48.20
2783;DHT22;1399;47.072;15.452;2024-03-08T09:47:14;13.10;48.10
2783;DHT22;1399;47.072;15.452;2024-03-08T09:49:41;13.20;48.20
2783;DHT22;1399;47.072;15.452;2024-03-08T09:52:07;13.20;48.20
2783;DHT22;1399;47.072;15.452;2024-03-08T09:54:33;13.20;48.20
2783;DHT22;1399;47.072;15.452;2024-03-08T09:56:59;13.30;48.20
2783;DHT22;1399;47.072;15.452;2024-03-08T09:59:25;13.30;48.20
2783;DHT22;1399;47.072;15.452;2024-03-08T10:01:51;13.30;48.10
2783;DHT22;1399;47.072;15.452;2024-03-08T10:04:18;13.40;48.30
2783;DHT22;1399;47.072;15.452;2024-03-08T10:06:45;13.40;48.00
2783;DHT22;1399;47.072;15.452;2024-03-08T10:09:12;13.50;48.20
2783;DHT22;1399;47.072;15.452;2024-03-08T10:11:40;13.50;48.10
2783;DHT22;1399;47.072;15.452;2024-03-08T10:14:07;13.50;48.10
2783;DHT22;1399;47.072;15.452;2024-03-08T10:16:33;13.60;48.00
2783;DHT22;1399;47.072;15.452;2024-03-08T10:19:00;13.60;48.00
2783;DHT22;1399;47.072;15.452;2024-03-08T10:21:26;13.70;47.80
2783;DHT22;1399;47.072;15.452;2024-03-08T10:23:52;13.80;47.60
2783;DHT22;1399;47.072;15.452;2024-03-08T10:26:19;13.80;47.40
2783;DHT22;1399;47.072;15.452;2024-03-08T10:28:48;13.90;47.20
2783;DHT22;1399;47.072;15.452;2024-03-08T10:31:15;13.90;47.30
2783;DHT22;1399;47.072;15.452;2024-03-08T10:33:41;14.00;47.20
2783;DHT22;1399;47.072;15.452;2024-03-08T10:36:08;14.00;47.00
2783;DHT22;1399;47.072;15.452;2024-03-08T10:38:42;14.00;46.40
2783;DHT22;1399;47.072;15.452;2024-03-08T10:41:12;14.00;46.20
2783;DHT22;1399;47.072;15.452;2024-03-08T10:49:25;14.10;45.90
2783;DHT22;1399;47.072;15.452;2024-03-08T10:51:51;14.10;45.90
2783;DHT22;1399;47.072;15.452;2024-03-08T10:54:19;14.10;45.70
2783;DHT22;1399;47.072;15.452;2024-03-08T10:56:48;14.00;45.30
2783;DHT22;1399;47.072;15.452;2024-03-08T10:59:17;14.10;45.30
2783;DHT22;1399;47.072;15.452;2024-03-08T11:01:44;14.10;45.30
2783;DHT22;1399;47.072;15.452;2024-03-08T11:04:10;14.10;45.10
2783;DHT22;1399;47.072;15.452;2024-03-08T11:09:36;14.20;44.90
2783;DHT22;1399;47.072;15.452;2024-03-08T11:12:23;14.20;44.20
2783;DHT22;1399;47.072;15.452;2024-03-08T11:15:09;14.20;43.80
2783;DHT22;1399;47.072;15.452;2024-03-08T11:17:51;14.20;44.10
2783;DHT22;1399;47.072;15.452;2024-03-08T11:20:20;14.10;44.00
2783;DHT22;1399;47.072;15.452;2024-03-08T11:23:22;14.10;43.90
2783;DHT22;1399;47.072;15.452;2024-03-08T11:25:41;14.10;43.60
2783;DHT22;1399;47.072;15.452;2024-03-08T11:28:17;14.10;43.30
2783;DHT22;1399;47.072;15.452;2024-03-08T11:31:32;14.00;43.40
2783;DHT22;1399;47.072;15.452;2024-03-08T11:33:35;14.00;43.50
2783;DHT22;1399;47.072;15.452;2024-03-08T11:38:46;14.00;43.60
2783;DHT22;1399;47.072;15.452;2024-03-08T11:41:19;14.00;43.30
2783;DHT22;1399;47.072;15.452;2024-03-08T11:43:49;14.00;43.70
2783;DHT22;1399;47.072;15.452;2024-03-08T11:46:16;14.00;44.00
2783;DHT22;1399;47.072;15.452;2024-03-08T11:48:43;14.10;44.20
2783;DHT22;1399;47.072;15.452;2024-03-08T11:51:12;14.00;43.70
2783;DHT22;1399;47.072;15.452;2024-03-08T11:53:39;14.10;43.20
2783;DHT22;1399;47.072;15.452;2024-03-08T11:56:11;14.10;42.70
2783;DHT22;1399;47.072;15.452;2024-03-08T11:58:40;14.10;42.70
2783;DHT22;1399;47.072;15.452;2024-03-08T12:01:08;14.10;42.60
2783;DHT22;1399;47.072;15.452;2024-03-08T12:03:42;14.10;42.10
2783;DHT22;1399;47.072;15.452;2024-03-08T12:06:09;14.10;42.20
2783;DHT22;1399;47.072;15.452;2024-03-08T12:08:35;14.10;42.80
2783;DHT22;1399;47.072;15.452;2024-03-08T12:11:02;14.10;43.00
2783;DHT22;1399;47.072;15.452;2024-03-08T12:13:33;14.20;43.30
2783;DHT22;1399;47.072;15.452;2024-03-08T12:16:01;14.20;43.30
2783;DHT22;1399;47.072;15.452;2024-03-08T12:18:36;14.20;43.00
2783;DHT22;1399;47.072;15.452;2024-03-08T12:21:06;14.30;43.10
2783;DHT22;1399;47.072;15.452;2024-03-08T12:23:44;14.30;43.50
2783;DHT22;1399;47.072;15.452;2024-03-08T12:26:24;14.40;43.80
2783;DHT22;1399;47.072;15.452;2024-03-08T12:28:51;14.40;44.00
2783;DHT22;1399;47.072;15.452;2024-03-08T12:31:17;14.40;43.90
2783;DHT22;1399;47.072;15.452;2024-03-08T12:33:54;14.40;43.70
2783;DHT22;1399;47.072;15.452;2024-03-08T12:36:22;14.30;43.60
2783;DHT22;1399;47.072;15.452;2024-03-08T12:38:48;14.40;43.70
2783;DHT22;1399;47.072;15.452;2024-03-08T12:41:15;14.40;43.80
2783;DHT22;1399;47.072;15.452;2024-03-08T12:43:41;14.50;44.00
2783;DHT22;1399;47.072;15.452;2024-03-08T12:46:07;14.50;44.20
2783;DHT22;1399;47.072;15.452;2024-03-08T12:48:37;14.50;44.00
2783;DHT22;1399;47.072;15.452;2024-03-08T12:51:09;14.50;43.90
2783;DHT22;1399;47.072;15.452;2024-03-08T12:53:35;14.60;43.90
2783;DHT22;1399;47.072;15.452;2024-03-08T12:56:02;14.60;43.50
2783;DHT22;1399;47.072;15.452;2024-03-08T12:58:29;14.60;43.20
2783;DHT22;1399;47.072;15.452;2024-03-08T13:00:55;14.70;43.00
2783;DHT22;1399;47.072;15.452;2024-03-08T13:03:20;14.70;42.70
2783;DHT22;1399;47.072;15.452;2024-03-08T13:05:48;14.70;42.80
2783;DHT22;1399;47.072;15.452;2024-03-08T13:08:15;14.60;42.60
2783;DHT22;1399;47.072;15.452;2024-03-08T13:10:42;14.60;42.90
2783;DHT22;1399;47.072;15.452;2024-03-08T13:13:11;14.60;43.30
2783;DHT22;1399;47.072;15.452;2024-03-08T13:15:37;14.60;43.50
2783;DHT22;1399;47.072;15.452;2024-03-08T13:18:03;14.60;43.60
2783;DHT22;1399;47.072;15.452;2024-03-08T13:20:31;14.60;43.70
2783;DHT22;1399;47.072;15.452;2024-03-08T13:22:57;14.60;43.60
2783;DHT22;1399;47.072;15.452;2024-03-08T13:25:25;14.60;43.90
2783;DHT22;1399;47.072;15.452;2024-03-08T13:27:52;14.60;43.90
2783;DHT22;1399;47.072;15.452;2024-03-08T13:30:21;14.50;43.60
2783;DHT22;1399;47.072;15.452;2024-03-08T13:32:51;14.50;43.70
2783;DHT22;1399;47.072;15.452;2024-03-08T13:35:18;14.50;43.90
2783;DHT22;1399;47.072;15.452;2024-03-08T13:37:51;14.50;44.10
2783;DHT22;1399;47.072;15.452;2024-03-08T13:40:17;14.50;44.20
2783;DHT22;1399;47.072;15.452;2024-03-08T13:42:46;14.50;44.10
2783;DHT22;1399;47.072;15.452;2024-03-08T13:45:12;14.50;44.10
2783;DHT22;1399;47.072;15.452;2024-03-08T13:47:39;14.40;44.20
2783;DHT22;1399;47.072;15.452;2024-03-08T13:50:08;14.40;44.10
2783;DHT22;1399;47.072;15.452;2024-03-08T13:52:38;14.40;43.90
2783;DHT22;1399;47.072;15.452;2024-03-08T13:55:04;14.40;43.80
2783;DHT22;1399;47.072;15.452;2024-03-08T13:57:31;14.40;43.70
2783;DHT22;1399;47.072;15.452;2024-03-08T13:59:58;14.40;43.90
2783;DHT22;1399;47.072;15.452;2024-03-08T14:02:23;14.40;44.10
2783;DHT22;1399;47.072;15.452;2024-03-08T14:04:53;14.40;44.20
2783;DHT22;1399;47.072;15.452;2024-03-08T14:07:20;14.40;44.10
2783;DHT22;1399;47.072;15.452;2024-03-08T14:09:46;14.40;44.50
2783;DHT22;1399;47.072;15.452;2024-03-08T14:12:12;14.40;44.40
2783;DHT22;1399;47.072;15.452;2024-03-08T14:14:41;14.40;44.20
2783;DHT22;1399;47.072;15.452;2024-03-08T14:17:07;14.40;44.00
2783;DHT22;1399;47.072;15.452;2024-03-08T14:19:36;14.40;43.80
2783;DHT22;1399;47.072;15.452;2024-03-08T14:22:02;14.40;43.70
2783;DHT22;1399;47.072;15.452;2024-03-08T14:24:32;14.40;43.60
2783;DHT22;1399;47.072;15.452;2024-03-08T14:27:01;14.40;43.60
2783;DHT22;1399;47.072;15.452;2024-03-08T14:29:28;14.40;43.60
2783;DHT22;1399;47.072;15.452;2024-03-08T14:31:56;14.40;43.70
2783;DHT22;1399;47.072;15.452;2024-03-08T14:34:26;14.40;43.90
2783;DHT22;1399;47.072;15.452;2024-03-08T14:36:53;14.40;43.90
2783;DHT22;1399;47.072;15.452;2024-03-08T14:39:19;14.40;44.10
2783;DHT22;1399;47.072;15.452;2024-03-08T14:41:55;14.40;44.20
2783;DHT22;1399;47.072;15.452;2024-03-08T14:44:22;14.40;44.20
2783;DHT22;1399;47.072;15.452;2024-03-08T14:46:52;14.40;44.30
2783;DHT22;1399;47.072;15.452;2024-03-08T14:49:18;14.40;44.10
2783;DHT22;1399;47.072;15.452;2024-03-08T14:51:44;14.40;44.20
2783;DHT22;1399;47.072;15.452;2024-03-08T14:54:10;14.40;44.40
2783;DHT22;1399;47.072;15.452;2024-03-08T14:56:39;14.40;44.60
2783;DHT22;1399;47.072;15.452;2024-03-08T14:59:08;14.40;44.30
2783;DHT22;1399;47.072;15.452;2024-03-08T15:01:35;14.40;44.50
2783;DHT22;1399;47.072;15.452;2024-03-08T15:04:04;14.40;44.50
2783;DHT22;1399;47.072;15.452;2024-03-08T15:06:37;14.40;44.70
2783;DHT22;1399;47.072;15.452;2024-03-08T15:09:04;14.30;44.70
2783;DHT22;1399;47.072;15.452;2024-03-08T15:11:41;14.30;45.00
2783;DHT22;1399;47.072;15.452;2024-03-08T15:14:08;14.30;45.20
2783;DHT22;1399;47.072;15.452;2024-03-08T15:16:40;14.30;44.70
2783;DHT22;1399;47.072;15.452;2024-03-08T15:19:07;14.30;44.70
2783;DHT22;1399;47.072;15.452;2024-03-08T15:21:33;14.20;44.60
2783;DHT22;1399;47.072;15.452;2024-03-08T15:24:00;14.20;44.60
2783;DHT22;1399;47.072;15.452;2024-03-08T15:26:28;14.20;44.80
2783;DHT22;1399;47.072;15.452;2024-03-08T15:28:55;14.20;44.70
2783;DHT22;1399;47.072;15.452;2024-03-08T15:31:22;14.10;44.60
2783;DHT22;1399;47.072;15.452;2024-03-08T15:33:50;14.10;44.70
2783;DHT22;1399;47.072;15.452;2024-03-08T15:36:36;14.10;44.70
2783;DHT22;1399;47.072;15.452;2024-03-08T15:39:02;14.10;44.50
2783;DHT22;1399;47.072;15.452;2024-03-08T15:41:35;14.10;44.80
2783;DHT22;1399;47.072;15.452;2024-03-08T15:44:01;14.00;44.90
2783;DHT22;1399;47.072;15.452;2024-03-08T15:46:27;14.00;44.90
2783;DHT22;1399;47.072;15.452;2024-03-08T15:48:53;14.00;44.80
2783;DHT22;1399;47.072;15.452;2024-03-08T15:51:19;14.00;44.70
2783;DHT22;1399;47.072;15.452;2024-03-08T15:53:45;14.00;44.60
2783;DHT22;1399;47.072;15.452;2024-03-08T15:56:18;13.90;44.70
2783;DHT22;1399;47.072;15.452;2024-03-08T15:58:46;13.90;44.60